sensor_id;sensor_type;location;lat;lon;timestamp;P1;durP1;ratioP1;P2;durP2;ratioP2
15716;SDS011;7960;50.908;4.204;2023-05-09T00:02:17;13.73;;;11.60;;
15716;SDS011;7960;50.908;4.204;2023-05-09T00:04:44;14.57;;;11.90;;
15716;SDS011;7960;50.908;4.204;2023-05-09T00:07:13;13.03;;;10.50;;
15716;SDS011;7960;50.908;4.204;2023-05-09T00:09:40;15.80;;;10.90;;
15716;SDS011;7960;50.908;4.204;2023-05-09T00:12:06;14.73;;;11.03;;
15716;SDS011;7960;50.908;4.204;2023-05-09T00:14:34;13.77;;;10.80;;
15716;SDS011;7960;50.908;4.204;2023-05-09T00:17:01;13.10;;;10.93;;
15716;SDS011;7960;50.908;4.204;2023-05-09T00:19:27;17.47;;;11.17;;
15716;SDS011;7960;50.908;4.204;2023-05-09T00:21:54;14.13;;;11.03;;
15716;SDS011;7960;50.908;4.204;2023-05-09T00:24:23;13.87;;;10.90;;
15716;SDS011;7960;50.908;4.204;2023-05-09T00:26:50;15.30;;;10.77;;
15716;SDS011;7960;50.908;4.204;2023-05-09T00:29:16;14.03;;;10.87;;
15716;SDS011;7960;50.908;4.204;2023-05-09T00:31:43;14.23;;;11.23;;
15716;SDS011;7960;50.908;4.204;2023-05-09T00:34:10;16.33;;;11.77;;
15716;SDS011;7960;50.908;4.204;2023-05-09T00:36:37;13.63;;;11.13;;
15716;SDS011;7960;50.908;4.204;2023-05-09T00:39:04;15.47;;;11.67;;
15716;SDS011;7960;50.908;4.204;2023-05-09T00:41:33;14.73;;;11.60;;
15716;SDS011;7960;50.908;4.204;2023-05-09T00:44:00;12.87;;;10.27;;
15716;SDS011;7960;50.908;4.204;2023-05-09T00:46:27;14.50;;;11.10;;
15716;SDS011;7960;50.908;4.204;2023-05-09T00:48:54;14.90;;;11.60;;
15716;SDS011;7960;50.908;4.204;2023-05-09T00:51:21;13.83;;;10.73;;
15716;SDS011;7960;50.908;4.204;2023-05-09T00:53:49;14.67;;;10.33;;
15716;SDS011;7960;50.908;4.204;2023-05-09T00:56:16;12.03;;;10.50;;
15716;SDS011;7960;50.908;4.204;2023-05-09T00:58:44;15.20;;;10.87;;
15716;SDS011;7960;50.908;4.204;2023-05-09T01:01:11;16.37;;;11.23;;
15716;SDS011;7960;50.908;4.204;2023-05-09T01:03:38;16.13;;;10.53;;
15716;SDS011;7960;50.908;4.204;2023-05-09T01:06:08;11.47;;;10.27;;
15716;SDS011;7960;50.908;4.204;2023-05-09T01:08:43;13.43;;;10.83;;
15716;SDS011;7960;50.908;4.204;2023-05-09T01:11:24;12.90;;;10.17;;
15716;SDS011;7960;50.908;4.204;2023-05-09T01:13:58;12.53;;;9.97;;
15716;SDS011;7960;50.908;4.204;2023-05-09T01:16:37;13.20;;;10.07;;
15716;SDS011;7960;50.908;4.204;2023-05-09T01:19:12;11.90;;;9.50;;
15716;SDS011;7960;50.908;4.204;2023-05-09T01:21:52;12.83;;;10.47;;
15716;SDS011;7960;50.908;4.204;2023-05-09T01:24:24;12.73;;;9.80;;
15716;SDS011;7960;50.908;4.204;2023-05-09T01:27:17;13.43;;;9.70;;
15716;SDS011;7960;50.908;4.204;2023-05-09T01:29:49;12.10;;;10.13;;
15716;SDS011;7960;50.908;4.204;2023-05-09T01:32:22;13.40;;;9.87;;
15716;SDS011;7960;50.908;4.204;2023-05-09T01:34:54;12.07;;;9.93;;
15716;SDS011;7960;50.908;4.204;2023-05-09T01:37:27;10.97;;;9.67;;
15716;SDS011;7960;50.908;4.204;2023-05-09T01:39:56;11.47;;;9.40;;
15716;SDS011;7960;50.908;4.204;2023-05-09T01:42:26;12.43;;;10.03;;
15716;SDS011;7960;50.908;4.204;2023-05-09T01:45:00;11.20;;;9.30;;
15716;SDS011;7960;50.908;4.204;2023-05-09T01:47:28;11.90;;;9.80;;
15716;SDS011;7960;50.908;4.204;2023-05-09T01:49:55;12.47;;;9.60;;
15716;SDS011;7960;50.908;4.204;2023-05-09T01:52:22;11.80;;;9.47;;
15716;SDS011;7960;50.908;4.204;2023-05-09T01:54:51;13.17;;;10.20;;
15716;SDS011;7960;50.908;4.204;2023-05-09T01:57:19;12.00;;;9.43;;
15716;SDS011;7960;50.908;4.204;2023-05-09T01:59:47;14.37;;;9.60;;
15716;SDS011;7960;50.908;4.204;2023-05-09T02:02:17;10.23;;;8.97;;
15716;SDS011;7960;50.908;4.204;2023-05-09T02:04:45;12.27;;;9.40;;
15716;SDS011;7960;50.908;4.204;2023-05-09T02:07:13;11.97;;;9.73;;
15716;SDS011;7960;50.908;4.204;2023-05-09T02:09:40;11.80;;;9.50;;
15716;SDS011;7960;50.908;4.204;2023-05-09T02:12:07;10.87;;;9.00;;
15716;SDS011;7960;50.908;4.204;2023-05-09T02:14:34;12.00;;;9.90;;
15716;SDS011;7960;50.908;4.204;2023-05-09T02:17:01;12.57;;;9.10;;
15716;SDS011;7960;50.908;4.204;2023-05-09T02:19:33;12.33;;;8.80;;
15716;SDS011;7960;50.908;4.204;2023-05-09T02:22:01;11.93;;;9.03;;
15716;SDS011;7960;50.908;4.204;2023-05-09T02:24:29;10.90;;;8.97;;
15716;SDS011;7960;50.908;4.204;2023-05-09T02:26:57;12.23;;;9.43;;
15716;SDS011;7960;50.908;4.204;2023-05-09T02:29:26;12.57;;;9.50;;
15716;SDS011;7960;50.908;4.204;2023-05-09T02:32:04;11.47;;;8.53;;
15716;SDS011;7960;50.908;4.204;2023-05-09T02:34:35;12.07;;;8.90;;
15716;SDS011;7960;50.908;4.204;2023-05-09T02:37:03;11.70;;;8.97;;
15716;SDS011;7960;50.908;4.204;2023-05-09T02:39:30;10.70;;;8.80;;
15716;SDS011;7960;50.908;4.204;2023-05-09T02:42:00;10.37;;;8.27;;
15716;SDS011;7960;50.908;4.204;2023-05-09T02:44:31;9.30;;;8.30;;
15716;SDS011;7960;50.908;4.204;2023-05-09T02:46:58;11.03;;;8.60;;
15716;SDS011;7960;50.908;4.204;2023-05-09T02:49:25;11.57;;;8.47;;
15716;SDS011;7960;50.908;4.204;2023-05-09T02:51:55;11.87;;;8.23;;
15716;SDS011;7960;50.908;4.204;2023-05-09T02:54:22;9.97;;;8.40;;
15716;SDS011;7960;50.908;4.204;2023-05-09T02:56:49;9.90;;;8.90;;
15716;SDS011;7960;50.908;4.204;2023-05-09T02:59:16;11.33;;;8.70;;
15716;SDS011;7960;50.908;4.204;2023-05-09T03:01:44;10.50;;;8.80;;
15716;SDS011;7960;50.908;4.204;2023-05-09T03:04:11;10.07;;;8.10;;
15716;SDS011;7960;50.908;4.204;2023-05-09T03:06:38;12.70;;;8.77;;
15716;SDS011;7960;50.908;4.204;2023-05-09T03:09:06;10.30;;;8.20;;
15716;SDS011;7960;50.908;4.204;2023-05-09T03:11:33;11.47;;;8.80;;
15716;SDS011;7960;50.908;4.204;2023-05-09T03:14:01;11.03;;;8.23;;
15716;SDS011;7960;50.908;4.204;2023-05-09T03:16:28;11.23;;;8.87;;
15716;SDS011;7960;50.908;4.204;2023-05-09T03:18:55;12.73;;;9.00;;
15716;SDS011;7960;50.908;4.204;2023-05-09T03:21:22;9.97;;;8.57;;
15716;SDS011;7960;50.908;4.204;2023-05-09T03:23:49;12.43;;;8.87;;
15716;SDS011;7960;50.908;4.204;2023-05-09T03:26:18;10.20;;;8.77;;
15716;SDS011;7960;50.908;4.204;2023-05-09T03:28:45;10.70;;;8.47;;
15716;SDS011;7960;50.908;4.204;2023-05-09T03:31:13;10.67;;;8.50;;
15716;SDS011;7960;50.908;4.204;2023-05-09T03:33:40;12.03;;;9.60;;
15716;SDS011;7960;50.908;4.204;2023-05-09T03:36:07;10.67;;;9.40;;
15716;SDS011;7960;50.908;4.204;2023-05-09T03:38:34;11.00;;;8.43;;
15716;SDS011;7960;50.908;4.204;2023-05-09T03:41:01;13.27;;;9.70;;
15716;SDS011;7960;50.908;4.204;2023-05-09T03:43:30;12.37;;;9.40;;
15716;SDS011;7960;50.908;4.204;2023-05-09T03:46:00;11.20;;;9.70;;
15716;SDS011;7960;50.908;4.204;2023-05-09T03:48:27;13.87;;;9.37;;
15716;SDS011;7960;50.908;4.204;2023-05-09T03:50:53;11.07;;;9.20;;
15716;SDS011;7960;50.908;4.204;2023-05-09T03:53:20;13.00;;;9.60;;
15716;SDS011;7960;50.908;4.204;2023-05-09T03:55:48;12.23;;;9.33;;
15716;SDS011;7960;50.908;4.204;2023-05-09T03:58:15;15.53;;;10.13;;
15716;SDS011;7960;50.908;4.204;2023-05-09T04:00:44;11.20;;;9.20;;
15716;SDS011;7960;50.908;4.204;2023-05-09T04:03:11;13.70;;;9.60;;
15716;SDS011;7960;50.908;4.204;2023-05-09T04:05:38;12.70;;;10.33;;
15716;SDS011;7960;50.908;4.204;2023-05-09T04:08:06;14.00;;;10.20;;
15716;SDS011;7960;50.908;4.204;2023-05-09T04:10:33;10.97;;;9.83;;
15716;SDS011;7960;50.908;4.204;2023-05-09T04:13:00;12.60;;;10.43;;
15716;SDS011;7960;50.908;4.204;2023-05-09T04:15:27;14.17;;;10.83;;
15716;SDS011;7960;50.908;4.204;2023-05-09T04:17:55;14.70;;;10.90;;
15716;SDS011;7960;50.908;4.204;2023-05-09T04:20:22;15.13;;;10.03;;
15716;SDS011;7960;50.908;4.204;2023-05-09T04:22:49;14.47;;;10.40;;
15716;SDS011;7960;50.908;4.204;2023-05-09T04:25:16;15.10;;;10.70;;
15716;SDS011;7960;50.908;4.204;2023-05-09T04:27:44;13.00;;;9.77;;
15716;SDS011;7960;50.908;4.204;2023-05-09T04:30:11;15.10;;;10.67;;
15716;SDS011;7960;50.908;4.204;2023-05-09T04:32:38;13.83;;;10.77;;
15716;SDS011;7960;50.908;4.204;2023-05-09T04:35:11;14.47;;;10.67;;
15716;SDS011;7960;50.908;4.204;2023-05-09T04:37:38;11.27;;;10.10;;
15716;SDS011;7960;50.908;4.204;2023-05-09T04:40:06;15.63;;;10.53;;
15716;SDS011;7960;50.908;4.204;2023-05-09T04:42:34;12.10;;;10.60;;
15716;SDS011;7960;50.908;4.204;2023-05-09T04:45:01;12.13;;;10.43;;
15716;SDS011;7960;50.908;4.204;2023-05-09T04:47:29;15.27;;;9.97;;
15716;SDS011;7960;50.908;4.204;2023-05-09T04:49:56;12.73;;;10.20;;
15716;SDS011;7960;50.908;4.204;2023-05-09T04:52:24;12.37;;;10.40;;
15716;SDS011;7960;50.908;4.204;2023-05-09T04:54:51;13.80;;;11.20;;
15716;SDS011;7960;50.908;4.204;2023-05-09T04:57:18;13.57;;;10.27;;
15716;SDS011;7960;50.908;4.204;2023-05-09T04:59:45;13.43;;;10.87;;
15716;SDS011;7960;50.908;4.204;2023-05-09T05:02:12;12.37;;;11.07;;
15716;SDS011;7960;50.908;4.204;2023-05-09T05:04:39;14.30;;;11.10;;
15716;SDS011;7960;50.908;4.204;2023-05-09T05:07:06;14.03;;;10.90;;
15716;SDS011;7960;50.908;4.204;2023-05-09T05:09:34;14.43;;;11.60;;
15716;SDS011;7960;50.908;4.204;2023-05-09T05:12:01;15.23;;;11.97;;
15716;SDS011;7960;50.908;4.204;2023-05-09T05:14:31;13.97;;;11.53;;
15716;SDS011;7960;50.908;4.204;2023-05-09T05:16:58;15.90;;;11.70;;
15716;SDS011;7960;50.908;4.204;2023-05-09T05:19:25;14.30;;;11.53;;
15716;SDS011;7960;50.908;4.204;2023-05-09T05:21:52;15.67;;;12.07;;
15716;SDS011;7960;50.908;4.204;2023-05-09T05:24:18;13.03;;;10.83;;
15716;SDS011;7960;50.908;4.204;2023-05-09T05:26:47;15.20;;;12.27;;
15716;SDS011;7960;50.908;4.204;2023-05-09T05:29:14;15.53;;;11.40;;
15716;SDS011;7960;50.908;4.204;2023-05-09T05:31:41;15.87;;;10.90;;
15716;SDS011;7960;50.908;4.204;2023-05-09T05:34:08;14.40;;;11.80;;
15716;SDS011;7960;50.908;4.204;2023-05-09T05:36:35;13.13;;;10.87;;
15716;SDS011;7960;50.908;4.204;2023-05-09T05:39:02;15.27;;;11.30;;
15716;SDS011;7960;50.908;4.204;2023-05-09T05:41:29;13.90;;;11.03;;
15716;SDS011;7960;50.908;4.204;2023-05-09T05:43:57;14.13;;;11.27;;
15716;SDS011;7960;50.908;4.204;2023-05-09T05:46:24;13.40;;;10.57;;
15716;SDS011;7960;50.908;4.204;2023-05-09T05:48:51;12.67;;;10.27;;
15716;SDS011;7960;50.908;4.204;2023-05-09T05:51:18;15.57;;;11.57;;
15716;SDS011;7960;50.908;4.204;2023-05-09T05:53:45;14.00;;;11.17;;
15716;SDS011;7960;50.908;4.204;2023-05-09T05:56:12;15.87;;;11.10;;
15716;SDS011;7960;50.908;4.204;2023-05-09T05:58:39;16.77;;;11.63;;
15716;SDS011;7960;50.908;4.204;2023-05-09T06:01:07;13.77;;;10.73;;
15716;SDS011;7960;50.908;4.204;2023-05-09T06:03:34;12.47;;;10.93;;
15716;SDS011;7960;50.908;4.204;2023-05-09T06:06:01;12.33;;;11.00;;
15716;SDS011;7960;50.908;4.204;2023-05-09T06:08:28;13.77;;;10.93;;
15716;SDS011;7960;50.908;4.204;2023-05-09T06:10:56;12.60;;;11.30;;
15716;SDS011;7960;50.908;4.204;2023-05-09T06:13:23;14.83;;;11.07;;
15716;SDS011;7960;50.908;4.204;2023-05-09T06:15:50;14.53;;;12.30;;
15716;SDS011;7960;50.908;4.204;2023-05-09T06:18:21;13.77;;;11.30;;
15716;SDS011;7960;50.908;4.204;2023-05-09T06:20:48;14.53;;;11.53;;
15716;SDS011;7960;50.908;4.204;2023-05-09T06:23:15;14.00;;;11.80;;
15716;SDS011;7960;50.908;4.204;2023-05-09T06:25:46;14.57;;;10.83;;
15716;SDS011;7960;50.908;4.204;2023-05-09T06:28:13;12.97;;;10.53;;
15716;SDS011;7960;50.908;4.204;2023-05-09T06:30:40;14.03;;;10.93;;
15716;SDS011;7960;50.908;4.204;2023-05-09T06:33:07;14.30;;;11.60;;
15716;SDS011;7960;50.908;4.204;2023-05-09T06:35:35;12.73;;;10.63;;
15716;SDS011;7960;50.908;4.204;2023-05-09T06:38:02;13.10;;;11.43;;
15716;SDS011;7960;50.908;4.204;2023-05-09T06:40:29;12.20;;;10.83;;
15716;SDS011;7960;50.908;4.204;2023-05-09T06:42:56;15.23;;;11.10;;
15716;SDS011;7960;50.908;4.204;2023-05-09T06:45:23;13.90;;;11.37;;
15716;SDS011;7960;50.908;4.204;2023-05-09T06:47:50;14.33;;;11.43;;
15716;SDS011;7960;50.908;4.204;2023-05-09T06:50:17;14.33;;;10.73;;
15716;SDS011;7960;50.908;4.204;2023-05-09T06:52:45;12.43;;;11.13;;
15716;SDS011;7960;50.908;4.204;2023-05-09T06:55:12;15.13;;;12.30;;
15716;SDS011;7960;50.908;4.204;2023-05-09T06:57:39;12.37;;;10.57;;
15716;SDS011;7960;50.908;4.204;2023-05-09T07:00:06;13.67;;;10.43;;
15716;SDS011;7960;50.908;4.204;2023-05-09T07:02:34;14.03;;;10.93;;
15716;SDS011;7960;50.908;4.204;2023-05-09T07:05:05;12.73;;;10.03;;
15716;SDS011;7960;50.908;4.204;2023-05-09T07:07:33;12.60;;;11.30;;
15716;SDS011;7960;50.908;4.204;2023-05-09T07:10:02;12.13;;;10.83;;
15716;SDS011;7960;50.908;4.204;2023-05-09T07:12:29;12.20;;;10.00;;
15716;SDS011;7960;50.908;4.204;2023-05-09T07:14:56;11.57;;;10.07;;
15716;SDS011;7960;50.908;4.204;2023-05-09T07:17:24;14.23;;;10.77;;
15716;SDS011;7960;50.908;4.204;2023-05-09T07:19:50;19.03;;;11.07;;
15716;SDS011;7960;50.908;4.204;2023-05-09T07:22:17;12.13;;;10.10;;
15716;SDS011;7960;50.908;4.204;2023-05-09T07:24:44;11.70;;;10.23;;
15716;SDS011;7960;50.908;4.204;2023-05-09T07:27:12;13.53;;;10.23;;
15716;SDS011;7960;50.908;4.204;2023-05-09T07:29:39;12.47;;;9.90;;
15716;SDS011;7960;50.908;4.204;2023-05-09T07:32:06;10.63;;;9.53;;
15716;SDS011;7960;50.908;4.204;2023-05-09T07:34:34;11.83;;;10.20;;
15716;SDS011;7960;50.908;4.204;2023-05-09T07:37:01;13.53;;;9.97;;
15716;SDS011;7960;50.908;4.204;2023-05-09T07:39:28;14.97;;;10.23;;
15716;SDS011;7960;50.908;4.204;2023-05-09T07:41:55;10.77;;;9.67;;
15716;SDS011;7960;50.908;4.204;2023-05-09T07:44:23;12.70;;;10.33;;
15716;SDS011;7960;50.908;4.204;2023-05-09T07:46:50;11.50;;;9.67;;
15716;SDS011;7960;50.908;4.204;2023-05-09T07:49:19;11.27;;;9.87;;
15716;SDS011;7960;50.908;4.204;2023-05-09T07:51:46;10.60;;;9.23;;
15716;SDS011;7960;50.908;4.204;2023-05-09T07:54:13;14.90;;;9.90;;
15716;SDS011;7960;50.908;4.204;2023-05-09T07:56:40;18.87;;;14.70;;
15716;SDS011;7960;50.908;4.204;2023-05-09T07:59:07;11.47;;;9.67;;
15716;SDS011;7960;50.908;4.204;2023-05-09T08:01:35;11.90;;;9.83;;
15716;SDS011;7960;50.908;4.204;2023-05-09T08:04:02;11.37;;;9.90;;
15716;SDS011;7960;50.908;4.204;2023-05-09T08:06:30;12.97;;;10.57;;
15716;SDS011;7960;50.908;4.204;2023-05-09T08:08:57;12.63;;;10.80;;
15716;SDS011;7960;50.908;4.204;2023-05-09T08:11:24;15.57;;;11.03;;
15716;SDS011;7960;50.908;4.204;2023-05-09T08:13:51;13.67;;;10.27;;
15716;SDS011;7960;50.908;4.204;2023-05-09T08:16:18;11.63;;;10.33;;
15716;SDS011;7960;50.908;4.204;2023-05-09T08:18:47;11.70;;;9.90;;
15716;SDS011;7960;50.908;4.204;2023-05-09T08:21:14;12.90;;;10.83;;
15716;SDS011;7960;50.908;4.204;2023-05-09T08:23:41;27.30;;;12.10;;
15716;SDS011;7960;50.908;4.204;2023-05-09T08:26:07;18.73;;;12.53;;
15716;SDS011;7960;50.908;4.204;2023-05-09T08:28:34;13.87;;;10.80;;
15716;SDS011;7960;50.908;4.204;2023-05-09T08:31:01;12.33;;;11.03;;
15716;SDS011;7960;50.908;4.204;2023-05-09T08:33:28;24.97;;;12.53;;
15716;SDS011;7960;50.908;4.204;2023-05-09T08:35:57;14.40;;;11.10;;
15716;SDS011;7960;50.908;4.204;2023-05-09T08:38:24;16.07;;;11.83;;
15716;SDS011;7960;50.908;4.204;2023-05-09T08:40:52;13.93;;;11.37;;
15716;SDS011;7960;50.908;4.204;2023-05-09T08:43:24;14.50;;;11.60;;
15716;SDS011;7960;50.908;4.204;2023-05-09T08:45:54;14.27;;;11.93;;
15716;SDS011;7960;50.908;4.204;2023-05-09T08:48:24;13.33;;;11.93;;
15716;SDS011;7960;50.908;4.204;2023-05-09T08:50:52;15.33;;;11.73;;
15716;SDS011;7960;50.908;4.204;2023-05-09T08:53:21;16.27;;;12.07;;
15716;SDS011;7960;50.908;4.204;2023-05-09T08:55:48;19.27;;;12.53;;
15716;SDS011;7960;50.908;4.204;2023-05-09T08:58:16;14.97;;;12.80;;
15716;SDS011;7960;50.908;4.204;2023-05-09T09:00:46;15.27;;;13.33;;
15716;SDS011;7960;50.908;4.204;2023-05-09T09:03:15;14.83;;;12.83;;
15716;SDS011;7960;50.908;4.204;2023-05-09T09:05:43;18.73;;;15.13;;
15716;SDS011;7960;50.908;4.204;2023-05-09T09:08:11;16.13;;;13.23;;
15716;SDS011;7960;50.908;4.204;2023-05-09T09:10:40;18.10;;;13.23;;
15716;SDS011;7960;50.908;4.204;2023-05-09T09:13:11;16.60;;;14.07;;
15716;SDS011;7960;50.908;4.204;2023-05-09T09:15:39;14.47;;;12.80;;
15716;SDS011;7960;50.908;4.204;2023-05-09T09:18:10;20.77;;;13.50;;
15716;SDS011;7960;50.908;4.204;2023-05-09T09:20:44;16.37;;;13.07;;
15716;SDS011;7960;50.908;4.204;2023-05-09T09:23:14;17.43;;;12.87;;
15716;SDS011;7960;50.908;4.204;2023-05-09T09:25:46;18.70;;;13.43;;
15716;SDS011;7960;50.908;4.204;2023-05-09T09:28:13;16.27;;;13.40;;
15716;SDS011;7960;50.908;4.204;2023-05-09T09:30:43;16.77;;;12.70;;
15716;SDS011;7960;50.908;4.204;2023-05-09T09:33:17;16.60;;;13.47;;
15716;SDS011;7960;50.908;4.204;2023-05-09T09:35:46;15.40;;;13.53;;
15716;SDS011;7960;50.908;4.204;2023-05-09T09:38:15;17.83;;;12.93;;
15716;SDS011;7960;50.908;4.204;2023-05-09T09:40:48;20.97;;;13.63;;
15716;SDS011;7960;50.908;4.204;2023-05-09T09:43:19;17.93;;;13.67;;
15716;SDS011;7960;50.908;4.204;2023-05-09T09:45:47;17.40;;;13.67;;
15716;SDS011;7960;50.908;4.204;2023-05-09T09:48:15;17.17;;;13.93;;
15716;SDS011;7960;50.908;4.204;2023-05-09T09:50:42;19.73;;;14.30;;
15716;SDS011;7960;50.908;4.204;2023-05-09T09:53:09;21.37;;;14.47;;
15716;SDS011;7960;50.908;4.204;2023-05-09T09:55:36;18.30;;;13.47;;
15716;SDS011;7960;50.908;4.204;2023-05-09T09:58:16;17.33;;;11.77;;
15716;SDS011;7960;50.908;4.204;2023-05-09T10:00:46;19.67;;;13.03;;
15716;SDS011;7960;50.908;4.204;2023-05-09T10:03:14;13.40;;;10.77;;
15716;SDS011;7960;50.908;4.204;2023-05-09T10:05:42;20.97;;;12.30;;
15716;SDS011;7960;50.908;4.204;2023-05-09T10:08:09;20.00;;;14.03;;
15716;SDS011;7960;50.908;4.204;2023-05-09T10:10:36;15.77;;;11.67;;
15716;SDS011;7960;50.908;4.204;2023-05-09T10:13:05;13.87;;;10.60;;
15716;SDS011;7960;50.908;4.204;2023-05-09T10:15:34;10.77;;;8.27;;
15716;SDS011;7960;50.908;4.204;2023-05-09T10:18:02;7.87;;;7.07;;
15716;SDS011;7960;50.908;4.204;2023-05-09T10:20:32;8.70;;;7.43;;
15716;SDS011;7960;50.908;4.204;2023-05-09T10:23:00;11.10;;;7.67;;
15716;SDS011;7960;50.908;4.204;2023-05-09T10:25:32;9.27;;;7.57;;
15716;SDS011;7960;50.908;4.204;2023-05-09T10:28:07;12.47;;;8.63;;
15716;SDS011;7960;50.908;4.204;2023-05-09T10:30:39;10.23;;;8.20;;
15716;SDS011;7960;50.908;4.204;2023-05-09T10:33:14;10.73;;;9.00;;
15716;SDS011;7960;50.908;4.204;2023-05-09T10:35:46;11.97;;;9.03;;
15716;SDS011;7960;50.908;4.204;2023-05-09T10:38:15;12.90;;;9.00;;
15716;SDS011;7960;50.908;4.204;2023-05-09T10:40:42;12.07;;;9.00;;
15716;SDS011;7960;50.908;4.204;2023-05-09T10:43:13;10.27;;;9.03;;
15716;SDS011;7960;50.908;4.204;2023-05-09T10:45:41;13.80;;;9.37;;
15716;SDS011;7960;50.908;4.204;2023-05-09T10:48:08;12.43;;;9.07;;
15716;SDS011;7960;50.908;4.204;2023-05-09T10:50:36;32.77;;;23.73;;
15716;SDS011;7960;50.908;4.204;2023-05-09T10:53:08;12.93;;;9.50;;
15716;SDS011;7960;50.908;4.204;2023-05-09T10:55:47;9.77;;;8.33;;
15716;SDS011;7960;50.908;4.204;2023-05-09T10:58:21;9.60;;;7.63;;
15716;SDS011;7960;50.908;4.204;2023-05-09T11:00:51;12.03;;;8.67;;
15716;SDS011;7960;50.908;4.204;2023-05-09T11:03:19;10.23;;;7.73;;
15716;SDS011;7960;50.908;4.204;2023-05-09T11:05:46;11.57;;;6.33;;
15716;SDS011;7960;50.908;4.204;2023-05-09T11:08:17;7.87;;;6.23;;
15716;SDS011;7960;50.908;4.204;2023-05-09T11:10:49;8.07;;;6.03;;
15716;SDS011;7960;50.908;4.204;2023-05-09T11:13:21;7.70;;;5.63;;
15716;SDS011;7960;50.908;4.204;2023-05-09T11:15:49;5.17;;;4.43;;
15716;SDS011;7960;50.908;4.204;2023-05-09T11:18:29;5.73;;;3.90;;
15716;SDS011;7960;50.908;4.204;2023-05-09T11:20:57;5.40;;;4.00;;
15716;SDS011;7960;50.908;4.204;2023-05-09T11:23:24;5.93;;;4.27;;
15716;SDS011;7960;50.908;4.204;2023-05-09T11:25:52;4.23;;;3.80;;
15716;SDS011;7960;50.908;4.204;2023-05-09T11:28:31;4.47;;;3.90;;
15716;SDS011;7960;50.908;4.204;2023-05-09T11:31:08;5.40;;;4.40;;
15716;SDS011;7960;50.908;4.204;2023-05-09T11:33:36;6.40;;;4.10;;
15716;SDS011;7960;50.908;4.204;2023-05-09T11:36:14;4.97;;;4.47;;
15716;SDS011;7960;50.908;4.204;2023-05-09T11:38:42;5.00;;;4.50;;
15716;SDS011;7960;50.908;4.204;2023-05-09T11:41:10;7.70;;;4.90;;
15716;SDS011;7960;50.908;4.204;2023-05-09T11:43:38;12.07;;;5.40;;
15716;SDS011;7960;50.908;4.204;2023-05-09T11:46:07;6.57;;;4.80;;
15716;SDS011;7960;50.908;4.204;2023-05-09T11:48:37;7.80;;;5.10;;
15716;SDS011;7960;50.908;4.204;2023-05-09T11:51:04;6.93;;;5.30;;
15716;SDS011;7960;50.908;4.204;2023-05-09T11:53:32;5.93;;;4.97;;
15716;SDS011;7960;50.908;4.204;2023-05-09T11:56:00;7.17;;;5.33;;
15716;SDS011;7960;50.908;4.204;2023-05-09T11:58:29;6.37;;;5.37;;
15716;SDS011;7960;50.908;4.204;2023-05-09T12:00:57;5.67;;;5.17;;
15716;SDS011;7960;50.908;4.204;2023-05-09T12:03:25;5.97;;;5.47;;
15716;SDS011;7960;50.908;4.204;2023-05-09T12:05:53;6.37;;;5.70;;
15716;SDS011;7960;50.908;4.204;2023-05-09T12:08:20;5.93;;;5.20;;
15716;SDS011;7960;50.908;4.204;2023-05-09T12:10:48;6.87;;;5.33;;
15716;SDS011;7960;50.908;4.204;2023-05-09T12:13:15;6.00;;;5.40;;
15716;SDS011;7960;50.908;4.204;2023-05-09T12:15:43;6.77;;;5.10;;
15716;SDS011;7960;50.908;4.204;2023-05-09T12:18:11;6.00;;;5.40;;
15716;SDS011;7960;50.908;4.204;2023-05-09T12:20:41;6.13;;;5.53;;
15716;SDS011;7960;50.908;4.204;2023-05-09T12:23:09;7.37;;;6.13;;
15716;SDS011;7960;50.908;4.204;2023-05-09T12:25:36;10.47;;;6.60;;
15716;SDS011;7960;50.908;4.204;2023-05-09T12:28:03;4.93;;;4.43;;
15716;SDS011;7960;50.908;4.204;2023-05-09T12:30:31;4.70;;;4.23;;
15716;SDS011;7960;50.908;4.204;2023-05-09T12:32:58;5.93;;;4.20;;
15716;SDS011;7960;50.908;4.204;2023-05-09T12:35:26;4.83;;;3.90;;
15716;SDS011;7960;50.908;4.204;2023-05-09T12:37:53;4.70;;;4.00;;
15716;SDS011;7960;50.908;4.204;2023-05-09T12:40:22;5.60;;;4.33;;
15716;SDS011;7960;50.908;4.204;2023-05-09T12:42:49;4.10;;;3.70;;
15716;SDS011;7960;50.908;4.204;2023-05-09T12:45:18;4.33;;;3.87;;
15716;SDS011;7960;50.908;4.204;2023-05-09T12:47:47;6.13;;;4.67;;
15716;SDS011;7960;50.908;4.204;2023-05-09T12:50:17;6.40;;;4.47;;
15716;SDS011;7960;50.908;4.204;2023-05-09T12:52:48;4.70;;;4.30;;
15716;SDS011;7960;50.908;4.204;2023-05-09T12:55:17;5.10;;;4.47;;
15716;SDS011;7960;50.908;4.204;2023-05-09T12:57:55;6.70;;;4.33;;
15716;SDS011;7960;50.908;4.204;2023-05-09T13:00:23;4.27;;;3.87;;
15716;SDS011;7960;50.908;4.204;2023-05-09T13:02:50;4.57;;;3.70;;
15716;SDS011;7960;50.908;4.204;2023-05-09T13:05:18;5.37;;;3.70;;
15716;SDS011;7960;50.908;4.204;2023-05-09T13:07:47;4.40;;;3.60;;
15716;SDS011;7960;50.908;4.204;2023-05-09T13:10:18;9.17;;;4.73;;
15716;SDS011;7960;50.908;4.204;2023-05-09T13:12:48;5.87;;;3.70;;
15716;SDS011;7960;50.908;4.204;2023-05-09T13:15:15;3.90;;;3.10;;
15716;SDS011;7960;50.908;4.204;2023-05-09T13:17:45;4.13;;;2.93;;
15716;SDS011;7960;50.908;4.204;2023-05-09T13:20:12;6.40;;;3.50;;
15716;SDS011;7960;50.908;4.204;2023-05-09T13:22:39;4.30;;;3.70;;
15716;SDS011;7960;50.908;4.204;2023-05-09T13:25:09;3.37;;;2.90;;
15716;SDS011;7960;50.908;4.204;2023-05-09T13:27:36;4.03;;;2.97;;
15716;SDS011;7960;50.908;4.204;2023-05-09T13:30:04;3.57;;;3.07;;
15716;SDS011;7960;50.908;4.204;2023-05-09T13:32:33;3.10;;;2.80;;
15716;SDS011;7960;50.908;4.204;2023-05-09T13:35:00;4.10;;;2.93;;
15716;SDS011;7960;50.908;4.204;2023-05-09T13:37:27;4.33;;;2.97;;
15716;SDS011;7960;50.908;4.204;2023-05-09T13:39:54;3.47;;;3.17;;
15716;SDS011;7960;50.908;4.204;2023-05-09T13:42:22;3.40;;;2.70;;
15716;SDS011;7960;50.908;4.204;2023-05-09T13:44:49;2.97;;;2.67;;
15716;SDS011;7960;50.908;4.204;2023-05-09T13:47:16;3.30;;;3.00;;
15716;SDS011;7960;50.908;4.204;2023-05-09T13:49:43;3.37;;;2.60;;
15716;SDS011;7960;50.908;4.204;2023-05-09T13:52:10;2.63;;;2.43;;
15716;SDS011;7960;50.908;4.204;2023-05-09T13:54:39;2.87;;;2.60;;
15716;SDS011;7960;50.908;4.204;2023-05-09T13:57:06;3.20;;;2.90;;
15716;SDS011;7960;50.908;4.204;2023-05-09T13:59:35;4.40;;;2.93;;
15716;SDS011;7960;50.908;4.204;2023-05-09T14:02:02;4.67;;;2.70;;
15716;SDS011;7960;50.908;4.204;2023-05-09T14:04:29;3.67;;;3.00;;
15716;SDS011;7960;50.908;4.204;2023-05-09T14:06:56;2.83;;;2.50;;
15716;SDS011;7960;50.908;4.204;2023-05-09T14:09:24;5.30;;;3.37;;
15716;SDS011;7960;50.908;4.204;2023-05-09T14:11:52;5.63;;;3.33;;
15716;SDS011;7960;50.908;4.204;2023-05-09T14:14:20;8.43;;;4.87;;
15716;SDS011;7960;50.908;4.204;2023-05-09T14:16:49;5.10;;;3.47;;
15716;SDS011;7960;50.908;4.204;2023-05-09T14:19:18;3.07;;;2.80;;
15716;SDS011;7960;50.908;4.204;2023-05-09T14:21:44;3.20;;;2.90;;
15716;SDS011;7960;50.908;4.204;2023-05-09T14:24:12;3.20;;;2.90;;
15716;SDS011;7960;50.908;4.204;2023-05-09T14:26:38;3.97;;;3.07;;
15716;SDS011;7960;50.908;4.204;2023-05-09T14:29:06;4.50;;;2.80;;
15716;SDS011;7960;50.908;4.204;2023-05-09T14:31:33;2.60;;;2.40;;
15716;SDS011;7960;50.908;4.204;2023-05-09T14:34:01;2.33;;;2.13;;
15716;SDS011;7960;50.908;4.204;2023-05-09T14:36:29;2.33;;;2.10;;
15716;SDS011;7960;50.908;4.204;2023-05-09T14:38:56;2.63;;;2.20;;
15716;SDS011;7960;50.908;4.204;2023-05-09T14:41:24;2.83;;;2.40;;
15716;SDS011;7960;50.908;4.204;2023-05-09T14:43:50;2.23;;;2.03;;
15716;SDS011;7960;50.908;4.204;2023-05-09T14:46:17;2.37;;;2.17;;
15716;SDS011;7960;50.908;4.204;2023-05-09T14:48:44;2.67;;;2.43;;
15716;SDS011;7960;50.908;4.204;2023-05-09T14:51:13;5.50;;;2.40;;
15716;SDS011;7960;50.908;4.204;2023-05-09T14:53:39;2.57;;;2.37;;